Terminal Aerodrome Forecast
Issued by NWS

Home | Current Version | Previous Version | Text Only | Print | Product List | Glossary On
Versions: 1 2 3 4 5 6 7 8 9 10 11 12 13 14 15 16 17 18 19 20 21 22 23 24 25 26 27 28 29 30
000
FTAK31 PANC 262328
TAFADL
TAF
PADL 262328Z 2700/2724 05015G25KT P6SM VCSH BKN050
     FM270300 02010G16KT P6SM -SHRA BKN035 OVC050
     FM271400 02010G18KT P6SM VCSH SCT040 BKN080=

USA.gov is the U.S. government's official web portal to all federal, state and local government web resources and services.